Nearby METAR Reports

 

LBSF - Sofia (observato, Bulgaria
Distance from station: ENE 64km
Updated: 28/09/2021 07:30
Mostly Cloudy
Mostly Cloudy
 Wind from SE
Wind: SE 7 km/h
Temperature: 14°C
Dew Point: 12°C
Humidity: 88%
Barometer: 1019 hPa
Clouds: Mostly Cloudy
Visibility: 10 km
Cloud details: Mostly Cloudy 2713 m
2021/09/28 04:30 LBSF 280430Z 13004KT 9999 BKN089 14/12 Q1019 NOSIG
LWSK - Skopje/Petrovac, Macedonia
Distance from station: WSW 99km
Updated: 28/09/2021 08:00
Few Clouds
Few Clouds
 Wind from calm
Wind: Calm
Temperature: 16°C
Dew Point: 12°C
Humidity: 77%
Barometer: 1017 hPa
Clouds: Few Clouds
Visibility: 10 km
Cloud details: Few Clouds 3048 m
2021/09/28 05:00 LWSK 280500Z 00000KT 9999 FEW100 16/12 Q1017 NOSIG
 
LYNI - Nis, Yugoslavia
Distance from station: NNW 127km
Updated: 28/09/2021 07:00
Clear
Clear
 Wind from varies
Wind: varies 2 km/h
Temperature: 15°C
Dew Point: 12°C
Humidity: 82%
Barometer: 1017 hPa
Summary: Clear
Visibility: greater than 10 km
2021/09/28 04:00 LYNI 280400Z VRB01KT CAVOK 15/12 Q1017 NOSIG
BKPR - Prishtina, Yugoslavia
Distance from station: W 141km
Updated: 28/09/2021 08:00
Mostly Cloudy
Mostly Cloudy
 Wind from varies
Wind: varies 4 km/h
Temperature: 15°C
Dew Point: 13°C
Humidity: 88%
Barometer: 1018 hPa
Clouds: Mostly Cloudy
Visibility: 8 km
Cloud details: Few Clouds 1219 m
Mostly Cloudy 2438 m
2021/09/28 05:00 BKPR 280500Z VRB02KT 8000 FEW040 BKN080 15/13 Q1018 NOSIG